KMVN

Mount Vernon Airport

Mount Vernon, Illinois, USA
METAR KMVN 230756Z AUTO 15008KT 10SM OVC003 09/09 A3016 RMK AO2 RAE50 SLP215 P0011 T00940089
Observed Flight Rules
Feb-23 @ 07:56 UTC (16 minutes ago) Instrument Flight Rules
Wind Visibility Clouds
150° at 8 knots 10 miles
  • Overcast at 300' AGL
Temperatures Readings Precipitation
Current 9°C / 48°F
Dewpoint 9°C / 48°F
Humidity 100%
Altimeter 30.16" Hg
Pressure 1021.5 hPa
Elevation 146
Current Rain 0.11
METAR KMVN 230756Z AUTO 15008KT 10SM OVC003 09/09 A3016 RMK AO2 RAE50 SLP215 P0011 T00940089
Observed Flight Rules
Feb-23 @ 07:56 UTC
(16 minutes ago)
LIFR
Wind Visibility
150° at 8 knots 10 miles
Clouds
  • Overcast at 300' AGL
Temperature Dewpoint
9°C / 48°F 9°C / 48°F
Humidity Altimeter Pressure
100% 30.16" Hg 1021.5 hPa
Current Rain
0.11